ZSHC

Hangzhou Xiaoshan International Airport

Hangzhou, China
TAF ZSHC 260302Z 2606/2706 09003MPS 3000 HZ NSC TX27/2705Z TN16/2621Z
Issued Valid From Valid To
Apr-26 @ 03:02 UTC
(3 hours ago)
Apr-26 @ 06:00 UTC
(2 minutes ago)
Apr-27 @ 06:00 UTC
(in 24 hours)
Apr-26 @ 06:00 to Apr-27 @ 06:00
TAF ZSHC 260302Z 2606/2706 09003MPS 3000 HZ NSC TX27/2705Z TN16/2621Z
Wind Visibility Clouds Conditions
90° at 6 knots 2,993 meters
  • No significant clouds
  • Haze
TAF ZSHC 260302Z 2606/2706 09003MPS 3000 HZ NSC TX27/2705Z TN16/2621Z
Issued Apr-26 @ 03:02 UTC
(3 hours ago)
Valid From Apr-26 @ 06:00 UTC
(2 minutes ago)
Valid To Apr-27 @ 06:00 UTC
(in 24 hours)
Apr-26 @ 06:00 - Apr-27 @ 06:00
Wind Visibility
90° at 6 knots 2,993 meters
Clouds
  • No significant clouds
Conditions
  • Haze